Time;durP1;ratioP1;P1;durP2;ratioP2;P2;SDS_P1;SDS_P2;PMS_P1;PMS_P2;Temp;Humidity;BMP_temperature;BMP_pressure;BME280_temperature;BME280_humidity;BME280_pressure;Samples;Min_cycle;Max_cycle;Signal;HPM_P1;HPM_P2
2022/11/02 05:22:33;;;;;;;6.28;1.10;;;;;;;10.43;100.00;100876.50;5089086;28;20386;-67
2022/11/02 05:24:59;;;;;;;0.73;0.68;;;;;;;10.55;100.00;100888.53;5087900;28;20048;-67
2022/11/02 05:27:24;;;;;;;0.93;0.80;;;;;;;10.69;100.00;100892.44;5087738;28;20028;-69
2022/11/02 05:29:50;;;;;;;3.80;0.88;;;;;;;10.80;100.00;100899.31;5087697;28;20135;-68
2022/11/02 05:32:16;;;;;;;0.88;0.85;;;;;;;10.89;100.00;100903.72;5087863;28;20227;-69
2022/11/02 05:34:41;;;;;;;3.22;0.60;;;;;;;10.97;100.00;100909.06;5087698;28;20032;-69
2022/11/02 05:37:08;;;;;;;4.15;1.23;;;;;;;11.00;100.00;100913.25;5087547;28;20032;-70
2022/11/02 05:39:34;;;;;;;3.65;1.33;;;;;;;11.04;100.00;100917.28;5087553;28;20032;-70
2022/11/02 05:42:00;;;;;;;1.45;0.90;;;;;;;11.05;100.00;100919.78;5087232;28;20055;-69
2022/11/02 05:44:26;;;;;;;5.35;0.75;;;;;;;11.03;100.00;100915.59;5088246;28;20071;-68
2022/11/02 05:46:52;;;;;;;3.22;1.35;;;;;;;11.05;100.00;100908.28;5087275;28;20044;-68
2022/11/02 05:49:17;;;;;;;0.98;0.75;;;;;;;11.08;100.00;100915.94;5088978;28;20036;-68
2022/11/02 05:51:43;;;;;;;6.55;1.40;;;;;;;11.09;100.00;100912.31;5088541;28;20489;-69
2022/11/02 05:54:08;;;;;;;2.97;1.20;;;;;;;11.07;100.00;100915.09;5088802;28;20032;-68
2022/11/02 05:56:34;;;;;;;1.55;1.15;;;;;;;11.05;100.00;100911.78;5088858;28;20060;-67
2022/11/02 05:58:59;;;;;;;2.47;0.95;;;;;;;11.08;100.00;100915.94;5088753;28;20040;-68
2022/11/02 06:01:25;;;;;;;2.88;1.20;;;;;;;11.10;100.00;100917.47;5088204;28;20461;-69
2022/11/02 06:03:50;;;;;;;1.65;1.27;;;;;;;11.09;100.00;100915.81;5088443;28;20137;-67
2022/11/02 06:06:15;;;;;;;6.93;1.15;;;;;;;11.08;100.00;100922.13;5088280;28;20544;-68
2022/11/02 06:08:41;;;;;;;2.90;1.73;;;;;;;11.08;100.00;100929.28;5088542;28;20094;-69
2022/11/02 06:11:11;;;;;;;4.97;1.30;;;;;;;11.06;100.00;100933.94;5087939;28;20072;-68
2022/11/02 06:13:37;;;;;;;4.25;1.50;;;;;;;11.06;100.00;100936.59;5088217;28;20036;-65
2022/11/02 06:16:04;;;;;;;3.42;1.00;;;;;;;10.99;100.00;100931.06;5088254;28;20036;-65
2022/11/02 06:18:32;;;;;;;2.13;1.20;;;;;;;11.03;100.00;100937.75;5088290;28;20089;-65
2022/11/02 06:20:58;;;;;;;2.58;1.10;;;;;;;10.99;100.00;100949.72;5087797;28;20037;-63
2022/11/02 06:23:24;;;;;;;0.80;0.80;;;;;;;10.97;100.00;100950.91;5088279;28;20404;-65
2022/11/02 06:25:51;;;;;;;1.58;0.88;;;;;;;10.94;100.00;100954.69;5087934;28;20056;-65
2022/11/02 06:28:17;;;;;;;1.40;0.98;;;;;;;10.92;100.00;100954.03;5087933;28;20059;-65
2022/11/02 06:30:42;;;;;;;1.58;0.90;;;;;;;10.89;100.00;100962.34;5086556;28;20458;-66
2022/11/02 06:33:07;;;;;;;3.00;1.50;;;;;;;10.92;100.00;100963.84;5078788;28;20033;-65
2022/11/02 06:35:33;;;;;;;5.18;1.50;;;;;;;10.90;100.00;100964.03;5074333;28;20066;-65
2022/11/02 06:37:58;;;;;;;2.95;1.20;;;;;;;10.90;100.00;100972.03;5074387;28;20496;-64
2022/11/02 06:40:24;;;;;;;2.00;1.15;;;;;;;10.86;100.00;100974.16;5073986;28;20032;-65
2022/11/02 06:42:55;;;;;;;1.33;1.00;;;;;;;10.87;100.00;100986.47;5074235;28;20515;-65
2022/11/02 06:45:20;;;;;;;1.48;1.13;;;;;;;10.87;100.00;100988.31;5074195;28;20029;-65
2022/11/02 06:47:47;;;;;;;3.13;1.23;;;;;;;10.87;100.00;100988.31;5073306;28;20098;-65
2022/11/02 06:50:13;;;;;;;1.92;1.33;;;;;;;10.92;100.00;100996.69;5073789;28;20044;-65
2022/11/02 06:52:43;;;;;;;2.03;1.05;;;;;;;10.88;100.00;100992.63;5074165;28;20032;-64
2022/11/02 06:55:10;;;;;;;1.20;1.10;;;;;;;10.86;100.00;100991.97;5073938;28;20025;-65
2022/11/02 06:57:37;;;;;;;3.65;1.73;;;;;;;10.86;100.00;100997.31;5073767;28;20047;-64
2022/11/02 07:00:08;;;;;;;0.90;0.80;;;;;;;10.85;100.00;101000.97;5073703;28;20037;-65
2022/11/02 07:02:34;;;;;;;4.43;1.38;;;;;;;10.88;100.00;101005.97;5073802;28;20036;-65
2022/11/02 07:05:01;;;;;;;2.53;1.10;;;;;;;10.88;100.00;101001.47;5073898;28;20040;-63
2022/11/02 07:07:26;;;;;;;6.30;1.23;;;;;;;10.91;100.00;101012.84;5073698;28;20542;-64
2022/11/02 07:09:52;;;;;;;1.27;1.13;;;;;;;10.90;100.00;101017.31;5073727;28;20036;-65
2022/11/02 07:12:17;;;;;;;2.83;1.17;;;;;;;10.96;100.00;101014.03;5073548;28;20550;-65
2022/11/02 07:14:42;;;;;;;1.90;1.10;;;;;;;10.98;100.00;101021.88;5073688;28;20055;-66
2022/11/02 07:17:09;;;;;;;2.33;1.40;;;;;;;11.02;100.00;101021.41;5073649;28;20124;-65
2022/11/02 07:19:35;;;;;;;2.42;0.93;;;;;;;11.05;100.00;101021.09;5073591;28;20036;-66
2022/11/02 07:22:00;;;;;;;1.38;1.08;;;;;;;11.09;100.00;101027.78;5073027;28;20025;-65
2022/11/02 07:24:26;;;;;;;4.00;1.20;;;;;;;11.16;100.00;101032.50;5072203;28;20512;-65
2022/11/02 07:26:51;;;;;;;5.07;1.13;;;;;;;11.19;100.00;101037.50;5073439;28;20396;-65
2022/11/02 07:29:17;;;;;;;1.75;1.23;;;;;;;11.26;100.00;101046.53;5073356;28;20082;-64
2022/11/02 07:31:43;;;;;;;1.42;0.90;;;;;;;11.29;100.00;101040.91;5072965;28;20469;-65
2022/11/02 07:34:09;;;;;;;1.95;1.23;;;;;;;11.30;100.00;101043.41;5073223;28;20037;-65
2022/11/02 07:36:34;;;;;;;3.00;1.30;;;;;;;11.38;100.00;101045.25;5073193;28;20047;-65
2022/11/02 07:39:00;;;;;;;1.30;0.95;;;;;;;11.40;100.00;101057.44;5073123;28;20649;-65
2022/11/02 07:41:25;;;;;;;2.47;1.17;;;;;;;11.46;100.00;101052.47;5072788;28;20470;-65
2022/11/02 07:43:50;;;;;;;2.53;1.20;;;;;;;11.49;100.00;101053.00;5072494;28;20094;-65
2022/11/02 07:46:32;;;;;;;1.83;0.90;;;;;;;11.58;100.00;101056.53;5073188;28;20072;-65
2022/11/02 07:48:57;;;;;;;3.45;1.00;;;;;;;11.59;100.00;101059.03;5073067;28;20060;-65
2022/11/02 07:51:23;;;;;;;1.60;0.90;;;;;;;11.60;100.00;101058.03;5072495;28;20041;-65
2022/11/02 07:53:49;;;;;;;1.92;1.30;;;;;;;11.67;100.00;101067.09;5072818;28;20044;-65
2022/11/02 07:56:14;;;;;;;2.50;1.20;;;;;;;11.72;100.00;101066.59;5072707;28;20044;-65
2022/11/02 07:58:39;;;;;;;1.42;0.88;;;;;;;11.79;100.00;101075.63;5072646;28;20485;-65
2022/11/02 08:01:05;;;;;;;1.75;0.90;;;;;;;11.86;100.00;101075.84;5072409;28;20076;-65
2022/11/02 08:03:30;;;;;;;2.22;1.02;;;;;;;11.90;100.00;101080.72;5072663;28;20041;-65
2022/11/02 08:05:59;;;;;;;5.43;1.48;;;;;;;11.97;100.00;101088.91;5072623;28;20090;-65
2022/11/02 08:08:24;;;;;;;1.42;1.00;;;;;;;11.99;100.00;101086.91;5072512;28;20119;-65
2022/11/02 08:10:51;;;;;;;0.90;0.80;;;;;;;11.99;100.00;101089.56;5072089;28;20064;-65
2022/11/02 08:13:22;;;;;;;2.10;0.90;;;;;;;12.04;100.00;101089.94;5072556;28;20041;-65
2022/11/02 08:15:50;;;;;;;0.93;0.80;;;;;;;12.09;100.00;101089.44;5072290;28;20485;-64
2022/11/02 08:18:21;;;;;;;2.10;1.15;;;;;;;12.13;100.00;101086.31;5072410;28;20102;-65
2022/11/02 08:20:46;;;;;;;4.18;0.73;;;;;;;12.15;100.00;101089.63;5071947;28;20036;-64
2022/11/02 08:23:14;;;;;;;1.95;0.70;;;;;;;12.20;100.00;101087.31;5072151;28;20094;-65
2022/11/02 08:25:40;;;;;;;0.68;0.68;;;;;;;12.27;100.00;101089.34;5072118;28;20079;-65
2022/11/02 08:28:07;;;;;;;2.45;0.68;;;;;;;12.30;100.00;101086.31;5072106;28;20075;-66
2022/11/02 08:30:33;;;;;;;6.07;1.33;;;;;;;12.35;100.00;101082.16;5071776;28;20480;-66
2022/11/02 08:33:07;;;;;;;4.85;1.23;;;;;;;12.42;100.00;101091.19;5072143;28;20033;-66
2022/11/02 08:35:33;;;;;;;1.75;0.70;;;;;;;12.45;100.00;101093.56;5071841;28;20066;-66
2022/11/02 08:37:59;;;;;;;1.25;0.70;;;;;;;12.59;100.00;101084.03;5071941;28;20032;-65
2022/11/02 08:40:25;;;;;;;1.67;0.75;;;;;;;12.69;100.00;101090.03;5071704;28;20413;-65
2022/11/02 08:42:56;;;;;;;3.00;0.90;;;;;;;12.82;100.00;101091.38;5071975;28;20451;-66
2022/11/02 08:45:22;;;;;;;1.73;0.93;;;;;;;13.01;99.09;101093.72;5071942;28;20059;-65
2022/11/02 08:47:47;;;;;;;1.83;0.70;;;;;;;13.10;97.13;101086.50;5071896;28;20501;-65
2022/11/02 08:50:12;;;;;;;4.45;1.08;;;;;;;13.20;97.13;101098.75;5071583;28;20043;-65
2022/11/02 08:52:39;;;;;;;4.40;0.90;;;;;;;13.27;96.23;101094.38;5071703;28;20524;-65
2022/11/02 08:55:04;;;;;;;0.80;0.55;;;;;;;13.33;94.91;101100.91;5071616;28;20044;-65
2022/11/02 08:57:30;;;;;;;3.13;0.90;;;;;;;13.39;96.04;101107.41;5071732;28;20047;-64
2022/11/02 08:59:56;;;;;;;1.75;0.70;;;;;;;13.39;95.58;101108.25;5071709;28;20048;-66
2022/11/02 09:02:21;;;;;;;3.72;0.77;;;;;;;13.41;94.58;101100.88;5071543;28;20036;-65
2022/11/02 09:04:47;;;;;;;2.17;0.90;;;;;;;13.46;96.14;101105.72;5071848;28;20036;-65
2022/11/02 09:07:12;;;;;;;1.13;0.57;;;;;;;13.50;92.64;101104.38;5071595;28;20048;-65
2022/11/02 09:09:37;;;;;;;1.08;0.70;;;;;;;13.54;92.90;101103.00;5071798;28;20039;-65
2022/11/02 09:12:03;;;;;;;1.42;1.10;;;;;;;13.61;91.88;101108.50;5071356;28;20159;-65
2022/11/02 09:14:28;;;;;;;2.15;0.73;;;;;;;13.61;90.95;101100.47;5071773;28;20455;-65
2022/11/02 09:16:54;;;;;;;4.75;0.90;;;;;;;13.65;90.92;101108.00;5070433;28;20041;-66
2022/11/02 09:19:19;;;;;;;1.40;1.00;;;;;;;13.77;91.46;101117.34;5071565;28;20364;-66
2022/11/02 09:21:46;;;;;;;4.50;0.98;;;;;;;13.90;90.88;101110.59;5071227;28;20047;-66
2022/11/02 09:24:12;;;;;;;1.15;0.75;;;;;;;14.02;89.29;101115.41;5071757;28;20043;-66
2022/11/02 09:26:38;;;;;;;2.03;0.95;;;;;;;14.05;89.12;101124.91;5071562;28;20036;-65
2022/11/02 09:29:03;;;;;;;0.63;0.55;;;;;;;14.08;88.31;101121.88;5071627;28;20036;-66
2022/11/02 09:31:29;;;;;;;1.98;0.80;;;;;;;14.19;88.24;101124.16;5071167;28;20082;-66
2022/11/02 09:33:54;;;;;;;3.92;1.20;;;;;;;14.23;89.08;101122.81;5071580;28;20067;-63
2022/11/02 09:36:19;;;;;;;2.25;0.80;;;;;;;14.35;87.61;101115.22;5071357;28;20111;-65
2022/11/02 09:38:45;;;;;;;1.58;0.50;;;;;;;14.30;86.57;101117.59;5071472;28;20519;-66
2022/11/02 09:41:20;;;;;;;4.13;1.10;;;;;;;14.35;85.65;101121.41;5071124;28;20041;-64
2022/11/02 09:44:13;;;;;;;3.17;0.95;;;;;;;14.48;85.73;101120.03;5071451;28;20051;-65
2022/11/02 09:46:42;;;;;;;1.98;0.70;;;;;;;14.69;85.10;101116.69;5071351;28;20055;-64
2022/11/02 09:49:15;;;;;;;4.35;1.00;;;;;;;14.95;84.09;101110.97;5071327;28;20040;-65
2022/11/02 09:51:47;;;;;;;3.25;1.17;;;;;;;15.27;80.93;101109.84;5070993;28;20037;-65
2022/11/02 09:54:28;;;;;;;1.40;0.90;;;;;;;15.43;80.02;101109.66;5071306;28;20039;-65
2022/11/02 09:56:57;;;;;;;2.45;1.33;;;;;;;15.86;78.39;101113.41;5071128;28;20093;-66
2022/11/02 09:59:25;;;;;;;1.60;0.88;;;;;;;16.29;74.54;101118.84;5071301;28;20028;-64
2022/11/02 10:02:09;;;;;;;;;;;;;;;16.47;73.80;101121.97;5071509;28;20396;-65
2022/11/02 10:04:42;;;;;;;4.32;1.00;;;;;;;16.18;71.93;101116.69;5071257;28;20011;-65
2022/11/02 10:07:20;;;;;;;3.15;1.15;;;;;;;16.11;72.78;101116.59;5071237;28;20037;-64
2022/11/02 10:10:10;;;;;;;1.00;0.70;;;;;;;15.86;73.51;101115.25;5074931;28;20079;-65
2022/11/02 10:12:57;;;;;;;2.40;1.08;;;;;;;16.01;72.51;101114.19;5074780;28;20120;-64
2022/11/02 10:15:47;;;;;;;1.58;0.98;;;;;;;16.57;70.16;101123.53;5074736;28;20047;-64
2022/11/02 10:18:19;;;;;;;3.70;1.10;;;;;;;16.49;66.13;101117.22;5074857;28;20067;-66
2022/11/02 10:20:48;;;;;;;4.95;0.93;;;;;;;16.35;67.93;101114.59;5074381;28;20033;-65
2022/11/02 10:23:32;;;;;;;2.28;1.00;;;;;;;16.94;67.20;101100.91;5073504;28;20048;-63
2022/11/02 10:26:00;;;;;;;3.47;1.02;;;;;;;17.60;64.47;101104.94;5074545;28;20173;-65
2022/11/02 10:28:30;;;;;;;4.22;1.08;;;;;;;18.00;63.82;101115.09;5074646;28;20063;-65
2022/11/02 10:30:56;;;;;;;2.47;1.20;;;;;;;18.71;57.43;101112.81;5074242;28;20090;-65
2022/11/02 10:33:26;;;;;;;4.03;1.00;;;;;;;19.02;58.14;101109.53;5074432;28;20036;-65
2022/11/02 10:36:07;;;;;;;4.97;0.90;;;;;;;19.66;56.61;101113.44;5074338;28;20635;-65
2022/11/02 10:38:56;;;;;;;6.55;1.05;;;;;;;19.80;55.89;101123.16;5074395;28;20052;-66
2022/11/02 10:41:49;;;;;;;6.13;1.17;;;;;;;19.20;54.54;101115.13;5074041;28;20076;-65
2022/11/02 10:44:37;;;;;;;3.63;0.70;;;;;;;19.52;54.04;101120.72;5074216;28;20037;-65
2022/11/02 10:47:08;;;;;;;3.25;1.00;;;;;;;19.28;54.20;101129.47;5074185;28;20028;-65
2022/11/02 10:49:49;;;;;;;3.17;0.95;;;;;;;18.65;55.63;101130.66;5074095;28;20060;-65
2022/11/02 10:52:16;;;;;;;2.03;0.77;;;;;;;18.88;57.26;101130.28;5073862;28;20040;-65
2022/11/02 10:54:42;;;;;;;4.07;1.20;;;;;;;18.71;56.33;101123.63;5074039;28;20043;-65
2022/11/02 10:57:21;;;;;;;2.88;0.95;;;;;;;19.10;56.37;101116.59;5073993;28;20037;-65
2022/11/02 11:00:24;;;;;;;4.13;1.45;;;;;;;20.02;52.73;101118.31;5074053;28;20032;-65
2022/11/02 11:03:06;;;;;;;3.05;1.08;;;;;;;20.92;50.09;101126.31;5074044;28;20040;-65
2022/11/02 11:05:34;;;;;;;2.88;1.15;;;;;;;20.96;47.73;101114.84;5073685;28;20056;-66
2022/11/02 11:07:59;;;;;;;;;;;;;;;21.46;47.90;101119.44;5074371;28;20021;-66
2022/11/02 11:10:26;;;;;;;4.18;0.60;;;;;;;22.14;46.77;101112.00;5073400;28;20369;-66
2022/11/02 11:12:53;;;;;;;2.80;0.80;;;;;;;21.81;45.82;101109.66;5073777;28;20072;-66
2022/11/02 11:15:25;;;;;;;2.17;0.88;;;;;;;22.20;45.37;101112.97;5073622;28;20032;-67
2022/11/02 11:17:51;;;;;;;1.88;1.05;;;;;;;22.27;44.59;101112.88;5073676;28;20079;-67
2022/11/02 11:20:37;;;;;;;5.13;1.15;;;;;;;22.79;43.44;101103.13;5073113;28;20072;-67
2022/11/02 11:23:06;;;;;;;4.97;1.60;;;;;;;23.14;42.54;101097.75;5073618;28;20033;-67
2022/11/02 11:25:32;;;;;;;4.75;1.63;;;;;;;22.78;43.75;101100.66;5073407;28;20109;-64
2022/11/02 11:27:58;;;;;;;7.45;1.00;;;;;;;22.80;42.45;101090.38;5073456;28;20489;-65
2022/11/02 11:30:27;;;;;;;4.53;1.67;;;;;;;22.48;42.79;101086.03;5072956;28;20094;-65
2022/11/02 11:32:55;;;;;;;3.90;1.08;;;;;;;22.36;41.29;101081.63;5073721;28;20043;-65
2022/11/02 11:35:21;;;;;;;3.97;1.10;;;;;;;22.77;41.12;101090.84;5073193;28;20047;-66
2022/11/02 11:37:59;;;;;;;4.10;1.20;;;;;;;22.97;40.33;101092.22;5073314;28;20033;-65
2022/11/02 11:40:29;;;;;;;1.77;0.77;;;;;;;22.99;40.93;101079.22;5072907;28;20043;-65
2022/11/02 11:42:55;;;;;;;2.78;1.40;;;;;;;23.10;40.73;101090.31;5073103;28;20032;-65
2022/11/02 11:45:24;;;;;;;3.78;1.50;;;;;;;22.83;40.73;101082.59;5072801;28;20143;-64
2022/11/02 11:48:01;;;;;;;4.20;0.90;;;;;;;23.50;40.36;101074.13;5062799;28;20097;-65
2022/11/02 11:50:26;;;;;;;3.70;1.17;;;;;;;23.54;40.97;101067.97;5062901;28;20095;-64
2022/11/02 11:53:27;;;;;;;3.50;1.35;;;;;;;23.39;40.71;101058.63;5066982;28;20048;-65
2022/11/02 11:55:57;;;;;;;4.57;1.42;;;;;;;22.87;41.18;101072.94;4971777;28;20046;-65
2022/11/02 11:58:30;;;;;;;3.85;1.17;;;;;;;22.17;42.64;101070.03;5038247;28;20568;-64
2022/11/02 12:01:11;;;;;;;8.38;1.52;;;;;;;21.77;42.88;101056.94;5052703;28;20500;-64
2022/11/02 12:03:57;;;;;;;5.15;1.10;;;;;;;21.48;44.19;101057.72;5052710;28;20032;-64
2022/11/02 12:06:48;;;;;;;5.88;1.40;;;;;;;20.78;46.72;101056.03;5052881;28;20044;-65
2022/11/02 12:09:20;;;;;;;3.75;0.90;;;;;;;20.72;47.03;101053.38;5052818;28;20079;-64
2022/11/02 12:11:55;;;;;;;7.50;1.73;;;;;;;20.33;47.64;101049.88;5052286;28;20033;-64
2022/11/02 12:14:31;;;;;;;5.53;1.27;;;;;;;19.86;48.90;101041.19;5052641;28;20052;-64
2022/11/02 12:17:31;;;;;;;3.53;1.58;;;;;;;19.28;50.91;101043.03;5052519;28;20074;-64
2022/11/02 12:20:00;;;;;;;2.33;0.95;;;;;;;18.88;52.20;101043.91;5018724;28;20055;-64
2022/11/02 12:22:47;;;;;;;4.55;1.23;;;;;;;18.32;53.33;101044.28;5052135;28;20056;-65
2022/11/02 12:25:24;;;;;;;4.60;1.23;;;;;;;18.09;53.40;101044.63;5052308;28;20090;-64
2022/11/02 12:28:21;;;;;;;9.13;1.95;;;;;;;17.89;54.41;101043.72;5052320;28;20041;-64
2022/11/02 12:31:28;;;;;;;4.72;1.00;;;;;;;17.69;57.29;101034.72;5051398;28;20045;-64
2022/11/02 12:34:09;;;;;;;3.75;1.08;;;;;;;17.72;55.65;101031.63;5031461;28;20052;-65
2022/11/02 12:36:34;;;;;;;2.85;0.88;;;;;;;17.60;56.39;101024.13;5052216;28;20062;-64
2022/11/02 12:39:27;;;;;;;7.47;1.63;;;;;;;17.55;56.24;101021.19;5052193;28;20029;-64
2022/11/02 12:41:53;;;;;;;5.28;1.33;;;;;;;17.76;56.55;101016.75;5051807;28;20040;-65
2022/11/02 12:44:27;;;;;;;2.30;1.23;;;;;;;17.78;57.12;101014.66;5050863;28;20041;-67
2022/11/02 12:47:13;;;;;;;4.68;1.05;;;;;;;17.91;55.71;101014.72;5051932;28;20477;-64
2022/11/02 12:49:55;;;;;;;3.53;0.77;;;;;;;17.97;54.27;101013.91;5051625;28;20052;-66
2022/11/02 12:52:59;;;;;;;2.47;1.13;;;;;;;18.04;55.72;101014.75;5051815;28;20075;-67
2022/11/02 12:55:30;;;;;;;11.18;1.77;;;;;;;17.81;53.35;101015.09;5051931;28;20457;-66
2022/11/02 12:58:04;;;;;;;3.22;1.52;;;;;;;18.12;53.39;101008.31;5051895;28;20033;-66
2022/11/02 13:00:34;;;;;;;5.85;1.27;;;;;;;17.96;53.79;100996.06;5051551;28;20040;-64
2022/11/02 13:03:26;;;;;;;2.90;1.40;;;;;;;18.14;52.35;100998.19;5051893;28;20502;-66
2022/11/02 13:06:01;;;;;;;5.78;1.13;;;;;;;17.98;53.18;100991.28;5028378;28;20056;-66
2022/11/02 13:08:44;;;;;;;4.47;1.30;;;;;;;17.96;52.95;100990.69;5051744;28;20064;-67
2022/11/02 13:11:18;;;;;;;6.85;1.20;;;;;;;17.95;53.53;100989.03;5051412;28;20127;-66
2022/11/02 13:13:56;;;;;;;5.18;1.17;;;;;;;17.82;52.57;100989.81;5051767;28;20497;-66
2022/11/02 13:16:34;;;;;;;4.65;1.35;;;;;;;17.52;54.96;100994.63;5051577;28;20064;-67
2022/11/02 13:19:02;;;;;;;5.50;1.67;;;;;;;17.70;53.33;100985.19;5051526;28;20035;-66
2022/11/02 13:21:39;;;;;;;4.50;1.10;;;;;;;17.53;54.95;100988.22;5051331;28;20040;-67
2022/11/02 13:24:10;;;;;;;6.68;1.48;;;;;;;17.50;54.98;100988.63;5051631;28;20082;-66
2022/11/02 13:26:40;;;;;;;8.07;1.70;;;;;;;17.39;54.70;100991.88;5051565;28;20040;-66
2022/11/02 13:29:15;;;;;;;10.40;1.65;;;;;;;17.65;55.26;100985.78;5051619;28;20040;-66
2022/11/02 13:31:45;;;;;;;5.60;1.48;;;;;;;17.41;55.83;100986.28;5051293;28;20037;-66
2022/11/02 13:34:16;;;;;;;3.08;1.05;;;;;;;17.27;55.74;100986.22;5051630;28;20429;-65
2022/11/02 13:36:43;;;;;;;5.30;1.33;;;;;;;17.46;55.35;100976.59;5051037;28;20033;-67
2022/11/02 13:39:27;;;;;;;2.70;1.27;;;;;;;17.39;55.70;100977.59;5052080;28;20045;-66
2022/11/02 13:42:25;;;;;;;3.63;1.08;;;;;;;17.45;55.20;100969.53;5051134;28;20068;-65
2022/11/02 13:45:06;;;;;;;3.55;1.10;;;;;;;17.43;56.67;100968.91;5047104;28;20041;-65
2022/11/02 13:47:52;;;;;;;5.72;2.13;;;;;;;17.38;55.95;100963.31;5055490;28;20032;-65
2022/11/02 13:50:21;;;;;;;6.87;1.67;;;;;;;17.25;55.89;100977.53;5071221;28;20036;-65
2022/11/02 13:53:04;;;;;;;2.35;0.70;;;;;;;17.11;56.17;100973.09;5075245;28;20584;-63
2022/11/02 13:55:53;;;;;;;2.13;0.82;;;;;;;17.05;57.40;100972.03;5075257;28;20550;-64
2022/11/02 13:58:25;;;;;;;7.72;1.38;;;;;;;17.10;57.00;100968.75;5075399;28;20164;-65
2022/11/02 14:00:52;;;;;;;5.82;1.30;;;;;;;16.83;57.91;100961.56;5074736;28;20080;-65
2022/11/02 14:03:40;;;;;;;3.97;1.13;;;;;;;16.95;57.54;100971.56;5075239;28;20044;-64
2022/11/02 14:06:09;;;;;;;;;;;;;;;16.93;58.68;100970.09;5075436;28;20036;-66
2022/11/02 14:08:39;;;;;;;5.53;1.50;;;;;;;16.87;59.11;100969.00;5074974;28;20429;-65
2022/11/02 14:11:08;;;;;;;5.07;1.33;;;;;;;16.86;58.48;100966.53;5074859;28;20037;-64
2022/11/02 14:13:52;;;;;;;3.20;1.17;;;;;;;16.78;58.41;100960.28;5075050;28;20043;-65
2022/11/02 14:16:44;;;;;;;2.30;0.80;;;;;;;16.72;57.60;100961.06;5062409;28;20037;-65
2022/11/02 14:19:12;;;;;;;3.45;0.90;;;;;;;16.70;57.57;100963.13;5054833;28;20482;-65
2022/11/02 14:21:40;;;;;;;3.25;1.00;;;;;;;16.67;58.26;100959.94;5054391;28;20033;-65
2022/11/02 14:24:31;;;;;;;7.45;1.88;;;;;;;16.62;57.14;100957.00;5054764;28;20068;-65
2022/11/02 14:26:57;;;;;;;2.75;1.02;;;;;;;16.58;58.28;100953.91;5054445;28;20041;-65
2022/11/02 14:29:37;;;;;;;5.27;1.50;;;;;;;16.59;58.42;100950.16;5054740;28;20111;-65
2022/11/02 14:32:09;;;;;;;4.25;1.42;;;;;;;16.57;59.20;100946.03;5054157;28;20295;-65
2022/11/02 14:34:42;;;;;;;4.47;1.45;;;;;;;16.50;59.15;100946.81;5054700;28;20043;-65
2022/11/02 14:38:01;;;;;;;6.50;1.63;;;;;;;16.34;60.09;100944.38;5054391;28;20494;-65
2022/11/02 14:40:32;;;;;;;2.08;1.17;;;;;;;16.36;60.63;100947.69;5012129;28;20044;-64
2022/11/02 14:43:09;;;;;;;8.50;1.15;;;;;;;16.27;60.62;100951.56;5052097;28;20052;-65
2022/11/02 14:46:26;;;;;;;2.70;1.33;;;;;;;16.33;63.02;100947.28;5054293;28;20086;-65
2022/11/02 14:48:53;;;;;;;;;;;;;;;16.27;62.00;100941.63;5038565;28;20110;-64
2022/11/02 14:51:24;;;;;;;;;;;;;;;16.25;61.88;100932.94;5054262;28;19920;-65
2022/11/02 14:54:00;;;;;;;6.13;2.28;;;;;;;16.21;61.25;100925.44;5053585;28;19913;-65
2022/11/02 14:56:50;;;;;;;1.98;1.23;;;;;;;16.10;61.90;100920.59;5053993;28;20051;-65
2022/11/02 14:59:30;;;;;;;5.65;1.40;;;;;;;15.98;61.73;100915.75;5054037;28;20060;-65
2022/11/02 15:02:13;;;;;;;13.23;3.05;;;;;;;15.96;63.02;100925.84;5052517;28;20076;-65
2022/11/02 15:04:48;;;;;;;7.15;2.13;;;;;;;15.85;63.89;100921.00;5054017;28;20041;-65
2022/11/02 15:07:21;;;;;;;11.25;1.85;;;;;;;15.83;64.00;100917.66;5052636;28;20049;-65
2022/11/02 15:10:06;;;;;;;4.43;1.30;;;;;;;15.82;64.65;100926.75;5053983;28;20036;-65
2022/11/02 15:12:40;;;;;;;2.30;0.95;;;;;;;15.75;63.90;100917.78;5053527;28;20043;-64
2022/11/02 15:15:32;;;;;;;4.70;1.15;;;;;;;15.70;62.56;100915.66;5072779;28;20123;-65
2022/11/02 15:17:57;;;;;;;6.82;1.20;;;;;;;15.72;63.21;100920.88;5074597;28;20044;-64
2022/11/02 15:20:29;;;;;;;9.25;1.38;;;;;;;15.66;64.35;100910.88;5073367;28;20041;-65
2022/11/02 15:23:15;;;;;;;8.43;1.80;;;;;;;15.62;66.49;100906.91;5073743;28;20045;-63
2022/11/02 15:25:47;;;;;;;2.40;1.00;;;;;;;15.52;66.03;100920.63;5073853;28;20029;-64
2022/11/02 15:28:16;;;;;;;4.47;1.27;;;;;;;15.48;68.10;100908.56;5074921;28;20731;-63
2022/11/02 15:30:46;;;;;;;3.83;1.05;;;;;;;15.42;67.82;100909.34;5073678;28;20406;-65
2022/11/02 15:33:18;;;;;;;3.78;1.15;;;;;;;15.37;68.75;100911.75;5074735;28;20109;-65
2022/11/02 15:35:45;;;;;;;4.05;1.52;;;;;;;15.32;68.28;100920.38;5073584;28;20033;-65
2022/11/02 15:38:12;;;;;;;4.32;1.30;;;;;;;15.24;69.13;100911.59;5073530;28;20119;-64
2022/11/02 15:40:50;;;;;;;3.85;1.08;;;;;;;15.13;70.15;100915.59;5073116;28;20039;-64
2022/11/02 15:43:30;;;;;;;2.72;1.23;;;;;;;14.97;73.88;100913.09;5073342;28;20468;-65
2022/11/02 15:46:19;;;;;;;6.15;1.58;;;;;;;14.66;76.69;100901.50;5073072;28;20032;-64
2022/11/02 15:49:03;;;;;;;8.52;1.38;;;;;;;14.65;76.77;100909.75;5073136;28;20086;-63
2022/11/02 15:51:41;;;;;;;8.93;2.30;;;;;;;14.43;79.31;100902.59;5073030;28;20448;-65
2022/11/02 15:54:12;;;;;;;8.57;2.28;;;;;;;14.30;79.29;100906.72;5073111;28;20060;-64
2022/11/02 15:57:11;;;;;;;6.95;2.83;;;;;;;14.18;80.80;100899.28;5072827;28;20024;-63
2022/11/02 16:00:12;;;;;;;9.70;2.22;;;;;;;13.98;82.27;100904.31;5071547;28;20036;-64
2022/11/02 16:02:48;;;;;;;7.28;1.80;;;;;;;13.73;83.87;100901.81;5065247;28;20485;-64
2022/11/02 16:05:37;;;;;;;9.35;2.33;;;;;;;13.55;84.75;100903.94;5072111;28;20075;-64
2022/11/02 16:08:02;;;;;;;7.93;2.17;;;;;;;13.51;86.03;100900.78;5072620;28;20465;-65
2022/11/02 16:10:33;;;;;;;5.70;2.28;;;;;;;13.27;86.50;100898.25;5072365;28;20111;-64
2022/11/02 16:13:15;;;;;;;10.20;3.83;;;;;;;13.27;87.03;100895.56;5072517;28;20045;-66
2022/11/02 16:15:42;;;;;;;6.25;1.90;;;;;;;13.08;88.57;100896.78;5072621;28;20104;-64
2022/11/02 16:18:24;;;;;;;9.70;2.30;;;;;;;12.94;89.09;100884.97;5072513;28;20457;-63
2022/11/02 16:20:50;;;;;;;8.85;2.30;;;;;;;12.68;90.51;100887.91;5072079;28;20032;-65
2022/11/02 16:23:22;;;;;;;11.00;2.65;;;;;;;12.60;91.96;100882.59;5072468;28;20040;-66
2022/11/02 16:25:51;;;;;;;5.90;1.98;;;;;;;12.61;92.01;100892.28;5072390;28;20036;-64
2022/11/02 16:28:26;;;;;;;2.45;1.65;;;;;;;12.68;92.05;100897.75;5072286;28;20035;-64
2022/11/02 16:31:07;;;;;;;7.03;1.90;;;;;;;12.47;92.42;100892.97;5071977;28;20040;-66
2022/11/02 16:33:40;;;;;;;14.05;2.60;;;;;;;12.34;93.46;100890.81;5072326;28;20043;-64
2022/11/02 16:36:12;;;;;;;2.90;1.77;;;;;;;12.10;96.00;100877.47;5072076;28;20063;-64
2022/11/02 16:38:51;;;;;;;7.43;2.20;;;;;;;11.94;97.42;100881.00;5072139;28;20492;-66
2022/11/02 16:41:17;;;;;;;7.03;2.00;;;;;;;11.96;96.96;100881.66;5071871;28;20032;-64
2022/11/02 16:43:44;;;;;;;8.50;1.98;;;;;;;11.81;97.77;100883.34;5072140;28;20451;-63
2022/11/02 16:46:14;;;;;;;6.82;1.98;;;;;;;11.72;97.33;100887.78;5071930;28;20493;-67
2022/11/02 16:49:10;;;;;;;5.28;2.10;;;;;;;11.80;98.45;100890.47;5071984;28;20490;-70
2022/11/02 16:51:36;;;;;;;4.63;1.50;;;;;;;11.87;97.36;100882.66;5071600;28;20048;-69
2022/11/02 16:54:25;;;;;;;4.90;1.48;;;;;;;11.59;97.71;100888.25;5071892;28;20048;-70
2022/11/02 16:56:53;;;;;;;4.45;1.65;;;;;;;11.54;98.30;100887.94;5071717;28;20036;-69
2022/11/02 16:59:20;;;;;;;5.72;2.28;;;;;;;11.62;97.30;100882.59;5071885;28;20207;-70
2022/11/02 17:01:46;;;;;;;4.38;1.48;;;;;;;11.45;97.32;100870.22;5071441;28;20112;-68
2022/11/02 17:04:38;;;;;;;6.25;1.75;;;;;;;11.18;99.52;100866.00;5071736;28;20059;-69
2022/11/02 17:07:16;;;;;;;6.93;2.17;;;;;;;11.19;99.96;100870.31;5072084;28;20036;-67
2022/11/02 17:09:41;;;;;;;6.03;3.08;;;;;;;11.23;98.54;100866.34;5071756;28;20044;-67
2022/11/02 17:12:15;;;;;;;5.18;2.55;;;;;;;11.01;99.89;100873.09;5071171;28;20112;-67